sensor_id;sensor_type;location;lat;lon;timestamp;P1;durP1;ratioP1;P2;durP2;ratioP2
19587;SDS011;9940;47.252;8.696;2023-03-31T00:01:50;5.72;;;3.97;;
19587;SDS011;9940;47.252;8.696;2023-03-31T00:04:18;9.93;;;5.03;;
19587;SDS011;9940;47.252;8.696;2023-03-31T00:06:48;6.40;;;4.18;;
19587;SDS011;9940;47.252;8.696;2023-03-31T00:09:16;8.02;;;5.03;;
19587;SDS011;9940;47.252;8.696;2023-03-31T00:11:43;10.57;;;4.35;;
19587;SDS011;9940;47.252;8.696;2023-03-31T00:14:11;6.97;;;4.13;;
19587;SDS011;9940;47.252;8.696;2023-03-31T00:16:37;6.03;;;4.13;;
19587;SDS011;9940;47.252;8.696;2023-03-31T00:19:03;7.97;;;4.45;;
19587;SDS011;9940;47.252;8.696;2023-03-31T00:21:34;6.43;;;4.05;;
19587;SDS011;9940;47.252;8.696;2023-03-31T00:24:02;8.00;;;4.05;;
19587;SDS011;9940;47.252;8.696;2023-03-31T00:26:29;9.00;;;4.30;;
19587;SDS011;9940;47.252;8.696;2023-03-31T00:28:56;7.82;;;4.50;;
19587;SDS011;9940;47.252;8.696;2023-03-31T00:31:22;6.68;;;3.83;;
19587;SDS011;9940;47.252;8.696;2023-03-31T00:33:51;8.43;;;5.07;;
19587;SDS011;9940;47.252;8.696;2023-03-31T00:36:16;6.07;;;4.18;;
19587;SDS011;9940;47.252;8.696;2023-03-31T00:38:48;8.05;;;4.45;;
19587;SDS011;9940;47.252;8.696;2023-03-31T00:41:15;7.65;;;4.53;;
19587;SDS011;9940;47.252;8.696;2023-03-31T00:46:50;12.57;;;4.57;;
19587;SDS011;9940;47.252;8.696;2023-03-31T00:49:28;10.57;;;4.50;;
19587;SDS011;9940;47.252;8.696;2023-03-31T00:52:01;13.68;;;4.13;;
19587;SDS011;9940;47.252;8.696;2023-03-31T00:54:31;13.98;;;5.03;;
19587;SDS011;9940;47.252;8.696;2023-03-31T00:57:02;6.75;;;4.38;;
19587;SDS011;9940;47.252;8.696;2023-03-31T00:59:30;7.72;;;4.50;;
19587;SDS011;9940;47.252;8.696;2023-03-31T01:02:02;8.35;;;4.45;;
19587;SDS011;9940;47.252;8.696;2023-03-31T01:04:32;10.88;;;4.60;;
19587;SDS011;9940;47.252;8.696;2023-03-31T01:07:05;8.43;;;4.15;;
19587;SDS011;9940;47.252;8.696;2023-03-31T01:09:40;9.80;;;4.57;;
19587;SDS011;9940;47.252;8.696;2023-03-31T01:12:11;5.65;;;4.22;;
19587;SDS011;9940;47.252;8.696;2023-03-31T01:14:39;9.35;;;5.00;;
19587;SDS011;9940;47.252;8.696;2023-03-31T01:17:07;9.65;;;4.43;;
19587;SDS011;9940;47.252;8.696;2023-03-31T01:19:56;8.27;;;5.03;;
19587;SDS011;9940;47.252;8.696;2023-03-31T01:36:24;9.15;;;4.45;;
19587;SDS011;9940;47.252;8.696;2023-03-31T01:47:42;6.78;;;4.25;;
19587;SDS011;9940;47.252;8.696;2023-03-31T01:58:31;7.88;;;4.70;;
19587;SDS011;9940;47.252;8.696;2023-03-31T02:01:25;7.05;;;4.60;;
19587;SDS011;9940;47.252;8.696;2023-03-31T02:03:54;6.90;;;4.43;;
19587;SDS011;9940;47.252;8.696;2023-03-31T02:06:26;8.30;;;4.70;;
19587;SDS011;9940;47.252;8.696;2023-03-31T02:09:00;8.18;;;4.93;;
19587;SDS011;9940;47.252;8.696;2023-03-31T02:11:32;11.60;;;4.72;;
19587;SDS011;9940;47.252;8.696;2023-03-31T02:13:58;9.82;;;4.60;;
19587;SDS011;9940;47.252;8.696;2023-03-31T02:16:30;8.40;;;4.70;;
19587;SDS011;9940;47.252;8.696;2023-03-31T02:18:58;8.43;;;4.22;;
19587;SDS011;9940;47.252;8.696;2023-03-31T02:21:31;10.32;;;4.38;;
19587;SDS011;9940;47.252;8.696;2023-03-31T02:23:59;12.73;;;4.95;;
19587;SDS011;9940;47.252;8.696;2023-03-31T02:26:30;8.13;;;4.40;;
19587;SDS011;9940;47.252;8.696;2023-03-31T02:29:01;9.80;;;4.93;;
19587;SDS011;9940;47.252;8.696;2023-03-31T02:34:01;7.43;;;4.47;;
19587;SDS011;9940;47.252;8.696;2023-03-31T02:36:27;5.82;;;3.85;;
19587;SDS011;9940;47.252;8.696;2023-03-31T02:38:59;7.32;;;4.38;;
19587;SDS011;9940;47.252;8.696;2023-03-31T02:41:30;9.60;;;4.80;;
19587;SDS011;9940;47.252;8.696;2023-03-31T02:43:59;11.77;;;4.78;;
19587;SDS011;9940;47.252;8.696;2023-03-31T02:46:25;9.80;;;4.50;;
19587;SDS011;9940;47.252;8.696;2023-03-31T02:48:55;8.65;;;4.65;;
19587;SDS011;9940;47.252;8.696;2023-03-31T02:54:08;8.13;;;4.50;;
19587;SDS011;9940;47.252;8.696;2023-03-31T02:57:16;9.68;;;4.40;;
19587;SDS011;9940;47.252;8.696;2023-03-31T03:05:34;5.97;;;3.80;;
19587;SDS011;9940;47.252;8.696;2023-03-31T03:08:07;7.22;;;4.07;;
19587;SDS011;9940;47.252;8.696;2023-03-31T03:11:03;6.50;;;3.70;;
19587;SDS011;9940;47.252;8.696;2023-03-31T03:13:54;6.57;;;3.80;;
19587;SDS011;9940;47.252;8.696;2023-03-31T03:16:43;6.55;;;3.85;;
19587;SDS011;9940;47.252;8.696;2023-03-31T03:19:17;4.95;;;3.50;;
19587;SDS011;9940;47.252;8.696;2023-03-31T03:21:45;10.90;;;4.60;;
19587;SDS011;9940;47.252;8.696;2023-03-31T03:24:14;7.97;;;4.10;;
19587;SDS011;9940;47.252;8.696;2023-03-31T03:26:42;6.32;;;4.30;;
19587;SDS011;9940;47.252;8.696;2023-03-31T03:29:09;8.65;;;4.47;;
19587;SDS011;9940;47.252;8.696;2023-03-31T03:31:41;8.55;;;4.60;;
19587;SDS011;9940;47.252;8.696;2023-03-31T03:34:07;6.78;;;4.20;;
19587;SDS011;9940;47.252;8.696;2023-03-31T03:36:36;8.00;;;3.88;;
19587;SDS011;9940;47.252;8.696;2023-03-31T03:39:06;7.63;;;4.07;;
19587;SDS011;9940;47.252;8.696;2023-03-31T03:41:32;9.80;;;3.88;;
19587;SDS011;9940;47.252;8.696;2023-03-31T03:44:00;8.30;;;3.85;;
19587;SDS011;9940;47.252;8.696;2023-03-31T03:46:29;5.45;;;3.72;;
19587;SDS011;9940;47.252;8.696;2023-03-31T03:48:54;8.63;;;4.28;;
19587;SDS011;9940;47.252;8.696;2023-03-31T03:51:20;7.68;;;4.10;;
19587;SDS011;9940;47.252;8.696;2023-03-31T03:53:46;5.18;;;3.90;;
19587;SDS011;9940;47.252;8.696;2023-03-31T03:56:12;7.25;;;3.90;;
19587;SDS011;9940;47.252;8.696;2023-03-31T03:58:38;6.75;;;3.90;;
19587;SDS011;9940;47.252;8.696;2023-03-31T04:01:03;4.72;;;3.38;;
19587;SDS011;9940;47.252;8.696;2023-03-31T04:03:29;7.80;;;3.63;;
19587;SDS011;9940;47.252;8.696;2023-03-31T04:05:55;7.22;;;3.47;;
19587;SDS011;9940;47.252;8.696;2023-03-31T04:08:23;5.90;;;3.28;;
19587;SDS011;9940;47.252;8.696;2023-03-31T04:10:49;5.82;;;3.58;;
19587;SDS011;9940;47.252;8.696;2023-03-31T04:13:15;5.10;;;2.47;;
19587;SDS011;9940;47.252;8.696;2023-03-31T04:15:41;8.45;;;3.00;;
19587;SDS011;9940;47.252;8.696;2023-03-31T04:18:07;4.55;;;2.35;;
19587;SDS011;9940;47.252;8.696;2023-03-31T04:20:47;5.00;;;2.97;;
19587;SDS011;9940;47.252;8.696;2023-03-31T04:23:38;6.53;;;2.78;;
19587;SDS011;9940;47.252;8.696;2023-03-31T04:26:13;6.88;;;3.53;;
19587;SDS011;9940;47.252;8.696;2023-03-31T04:28:44;4.97;;;3.45;;
19587;SDS011;9940;47.252;8.696;2023-03-31T04:31:14;6.82;;;4.32;;
19587;SDS011;9940;47.252;8.696;2023-03-31T04:33:49;7.32;;;4.05;;
19587;SDS011;9940;47.252;8.696;2023-03-31T04:36:19;10.77;;;4.10;;
19587;SDS011;9940;47.252;8.696;2023-03-31T04:38:45;9.85;;;3.85;;
19587;SDS011;9940;47.252;8.696;2023-03-31T04:41:18;7.45;;;3.95;;
19587;SDS011;9940;47.252;8.696;2023-03-31T04:43:47;6.35;;;4.05;;
19587;SDS011;9940;47.252;8.696;2023-03-31T04:46:15;10.30;;;4.78;;
19587;SDS011;9940;47.252;8.696;2023-03-31T04:48:44;9.32;;;4.03;;
19587;SDS011;9940;47.252;8.696;2023-03-31T04:51:12;9.63;;;4.43;;
19587;SDS011;9940;47.252;8.696;2023-03-31T04:53:41;5.15;;;3.90;;
19587;SDS011;9940;47.252;8.696;2023-03-31T04:56:07;8.10;;;3.95;;
19587;SDS011;9940;47.252;8.696;2023-03-31T04:58:33;7.32;;;4.07;;
19587;SDS011;9940;47.252;8.696;2023-03-31T05:00:58;5.32;;;3.95;;
19587;SDS011;9940;47.252;8.696;2023-03-31T05:03:24;5.75;;;3.67;;
19587;SDS011;9940;47.252;8.696;2023-03-31T05:05:52;5.82;;;3.83;;
19587;SDS011;9940;47.252;8.696;2023-03-31T05:08:18;6.60;;;3.42;;
19587;SDS011;9940;47.252;8.696;2023-03-31T05:10:45;6.57;;;3.60;;
19587;SDS011;9940;47.252;8.696;2023-03-31T05:13:10;6.25;;;3.45;;
19587;SDS011;9940;47.252;8.696;2023-03-31T05:15:37;6.70;;;3.42;;
19587;SDS011;9940;47.252;8.696;2023-03-31T05:18:03;8.15;;;3.30;;
19587;SDS011;9940;47.252;8.696;2023-03-31T05:20:29;8.30;;;3.58;;
19587;SDS011;9940;47.252;8.696;2023-03-31T05:22:55;6.55;;;3.58;;
19587;SDS011;9940;47.252;8.696;2023-03-31T05:25:21;6.97;;;3.75;;
19587;SDS011;9940;47.252;8.696;2023-03-31T05:27:47;8.63;;;3.78;;
19587;SDS011;9940;47.252;8.696;2023-03-31T05:30:16;7.32;;;3.42;;
19587;SDS011;9940;47.252;8.696;2023-03-31T05:32:47;5.90;;;3.80;;
19587;SDS011;9940;47.252;8.696;2023-03-31T05:35:17;8.18;;;3.70;;
19587;SDS011;9940;47.252;8.696;2023-03-31T05:37:45;10.23;;;3.80;;
19587;SDS011;9940;47.252;8.696;2023-03-31T05:40:13;8.07;;;4.07;;
19587;SDS011;9940;47.252;8.696;2023-03-31T05:42:39;6.38;;;4.05;;
19587;SDS011;9940;47.252;8.696;2023-03-31T05:45:07;6.50;;;4.07;;
19587;SDS011;9940;47.252;8.696;2023-03-31T05:47:36;7.95;;;4.38;;
19587;SDS011;9940;47.252;8.696;2023-03-31T05:50:02;7.05;;;4.00;;
19587;SDS011;9940;47.252;8.696;2023-03-31T05:52:34;6.82;;;3.78;;
19587;SDS011;9940;47.252;8.696;2023-03-31T05:55:00;7.25;;;3.78;;
19587;SDS011;9940;47.252;8.696;2023-03-31T05:57:26;8.82;;;4.20;;
19587;SDS011;9940;47.252;8.696;2023-03-31T05:59:51;7.70;;;3.75;;
19587;SDS011;9940;47.252;8.696;2023-03-31T06:02:19;10.75;;;3.45;;
19587;SDS011;9940;47.252;8.696;2023-03-31T06:04:45;9.10;;;3.30;;
19587;SDS011;9940;47.252;8.696;2023-03-31T06:07:13;7.78;;;3.10;;
19587;SDS011;9940;47.252;8.696;2023-03-31T06:09:38;9.52;;;3.78;;
19587;SDS011;9940;47.252;8.696;2023-03-31T06:12:04;5.80;;;3.22;;
19587;SDS011;9940;47.252;8.696;2023-03-31T06:14:30;7.53;;;3.47;;
19587;SDS011;9940;47.252;8.696;2023-03-31T06:16:56;5.82;;;3.47;;
19587;SDS011;9940;47.252;8.696;2023-03-31T06:19:24;4.82;;;3.28;;
19587;SDS011;9940;47.252;8.696;2023-03-31T06:21:52;5.65;;;3.28;;
19587;SDS011;9940;47.252;8.696;2023-03-31T06:24:19;6.88;;;3.38;;
19587;SDS011;9940;47.252;8.696;2023-03-31T06:26:46;5.07;;;3.50;;
19587;SDS011;9940;47.252;8.696;2023-03-31T06:29:13;7.20;;;3.53;;
19587;SDS011;9940;47.252;8.696;2023-03-31T06:31:39;5.95;;;3.28;;
19587;SDS011;9940;47.252;8.696;2023-03-31T06:34:05;6.43;;;3.47;;
19587;SDS011;9940;47.252;8.696;2023-03-31T06:36:35;5.88;;;3.15;;
19587;SDS011;9940;47.252;8.696;2023-03-31T06:39:03;6.93;;;3.50;;
19587;SDS011;9940;47.252;8.696;2023-03-31T06:41:28;6.07;;;3.55;;
19587;SDS011;9940;47.252;8.696;2023-03-31T06:43:56;6.57;;;3.22;;
19587;SDS011;9940;47.252;8.696;2023-03-31T06:46:24;6.63;;;3.70;;
19587;SDS011;9940;47.252;8.696;2023-03-31T06:48:50;7.05;;;4.00;;
19587;SDS011;9940;47.252;8.696;2023-03-31T06:51:15;7.03;;;3.75;;
19587;SDS011;9940;47.252;8.696;2023-03-31T06:53:41;6.55;;;3.55;;
19587;SDS011;9940;47.252;8.696;2023-03-31T06:56:07;12.23;;;3.83;;
19587;SDS011;9940;47.252;8.696;2023-03-31T06:58:35;7.03;;;3.33;;
19587;SDS011;9940;47.252;8.696;2023-03-31T07:01:01;5.78;;;3.53;;
19587;SDS011;9940;47.252;8.696;2023-03-31T07:03:28;6.35;;;3.67;;
19587;SDS011;9940;47.252;8.696;2023-03-31T07:05:59;8.27;;;3.60;;
19587;SDS011;9940;47.252;8.696;2023-03-31T07:08:27;8.68;;;3.42;;
19587;SDS011;9940;47.252;8.696;2023-03-31T07:10:54;8.32;;;3.08;;
19587;SDS011;9940;47.252;8.696;2023-03-31T07:13:22;6.25;;;2.90;;
19587;SDS011;9940;47.252;8.696;2023-03-31T07:15:48;10.10;;;2.80;;
19587;SDS011;9940;47.252;8.696;2023-03-31T07:18:15;6.93;;;3.20;;
19587;SDS011;9940;47.252;8.696;2023-03-31T07:20:41;6.95;;;3.28;;
19587;SDS011;9940;47.252;8.696;2023-03-31T07:23:07;4.28;;;3.05;;
19587;SDS011;9940;47.252;8.696;2023-03-31T07:25:36;7.57;;;3.30;;
19587;SDS011;9940;47.252;8.696;2023-03-31T07:28:02;4.43;;;3.10;;
19587;SDS011;9940;47.252;8.696;2023-03-31T07:30:31;4.10;;;3.08;;
19587;SDS011;9940;47.252;8.696;2023-03-31T07:32:57;7.00;;;3.17;;
19587;SDS011;9940;47.252;8.696;2023-03-31T07:35:25;6.63;;;3.42;;
19587;SDS011;9940;47.252;8.696;2023-03-31T07:37:51;5.88;;;2.90;;
19587;SDS011;9940;47.252;8.696;2023-03-31T07:40:22;6.03;;;2.92;;
19587;SDS011;9940;47.252;8.696;2023-03-31T07:42:52;4.63;;;3.17;;
19587;SDS011;9940;47.252;8.696;2023-03-31T07:45:21;4.85;;;2.90;;
19587;SDS011;9940;47.252;8.696;2023-03-31T07:47:49;6.47;;;3.10;;
19587;SDS011;9940;47.252;8.696;2023-03-31T07:50:15;6.38;;;3.40;;
19587;SDS011;9940;47.252;8.696;2023-03-31T07:52:44;7.28;;;3.15;;
19587;SDS011;9940;47.252;8.696;2023-03-31T07:55:10;6.10;;;3.50;;
19587;SDS011;9940;47.252;8.696;2023-03-31T07:57:38;6.82;;;3.97;;
19587;SDS011;9940;47.252;8.696;2023-03-31T08:00:06;7.13;;;3.30;;
19587;SDS011;9940;47.252;8.696;2023-03-31T08:02:34;9.10;;;3.40;;
19587;SDS011;9940;47.252;8.696;2023-03-31T08:05:02;7.47;;;3.78;;
19587;SDS011;9940;47.252;8.696;2023-03-31T08:07:29;8.70;;;3.88;;
19587;SDS011;9940;47.252;8.696;2023-03-31T08:09:58;5.25;;;3.22;;
19587;SDS011;9940;47.252;8.696;2023-03-31T08:12:26;6.38;;;3.45;;
19587;SDS011;9940;47.252;8.696;2023-03-31T08:14:52;8.25;;;3.65;;
19587;SDS011;9940;47.252;8.696;2023-03-31T08:17:18;7.30;;;3.78;;
19587;SDS011;9940;47.252;8.696;2023-03-31T08:19:44;4.90;;;3.90;;
19587;SDS011;9940;47.252;8.696;2023-03-31T08:22:10;8.95;;;4.22;;
19587;SDS011;9940;47.252;8.696;2023-03-31T08:24:38;6.70;;;4.00;;
19587;SDS011;9940;47.252;8.696;2023-03-31T08:27:04;7.10;;;3.97;;
19587;SDS011;9940;47.252;8.696;2023-03-31T08:29:31;6.70;;;3.90;;
19587;SDS011;9940;47.252;8.696;2023-03-31T08:31:57;7.78;;;4.07;;
19587;SDS011;9940;47.252;8.696;2023-03-31T08:34:23;10.48;;;4.00;;
19587;SDS011;9940;47.252;8.696;2023-03-31T08:36:48;6.22;;;4.25;;
19587;SDS011;9940;47.252;8.696;2023-03-31T08:39:17;11.75;;;4.43;;
19587;SDS011;9940;47.252;8.696;2023-03-31T08:44:41;7.35;;;4.18;;
19587;SDS011;9940;47.252;8.696;2023-03-31T08:47:11;9.15;;;4.40;;
19587;SDS011;9940;47.252;8.696;2023-03-31T08:49:50;8.52;;;4.07;;
19587;SDS011;9940;47.252;8.696;2023-03-31T08:52:30;7.40;;;4.70;;
19587;SDS011;9940;47.252;8.696;2023-03-31T08:55:19;11.07;;;4.82;;
19587;SDS011;9940;47.252;8.696;2023-03-31T08:57:56;12.43;;;4.47;;
19587;SDS011;9940;47.252;8.696;2023-03-31T09:00:50;7.50;;;4.83;;
19587;SDS011;9940;47.252;8.696;2023-03-31T09:06:38;10.32;;;5.38;;
19587;SDS011;9940;47.252;8.696;2023-03-31T09:09:24;10.30;;;5.00;;
19587;SDS011;9940;47.252;8.696;2023-03-31T09:12:17;7.38;;;4.00;;
19587;SDS011;9940;47.252;8.696;2023-03-31T09:17:17;6.78;;;4.00;;
19587;SDS011;9940;47.252;8.696;2023-03-31T09:20:00;6.95;;;4.18;;
19587;SDS011;9940;47.252;8.696;2023-03-31T09:22:40;7.35;;;3.40;;
19587;SDS011;9940;47.252;8.696;2023-03-31T09:25:53;10.32;;;3.38;;
19587;SDS011;9940;47.252;8.696;2023-03-31T09:28:03;10.30;;;3.83;;
19587;SDS011;9940;47.252;8.696;2023-03-31T09:30:33;7.68;;;2.72;;
19587;SDS011;9940;47.252;8.696;2023-03-31T09:36:00;7.03;;;2.35;;
19587;SDS011;9940;47.252;8.696;2023-03-31T09:38:27;3.00;;;2.40;;
19587;SDS011;9940;47.252;8.696;2023-03-31T09:41:00;4.25;;;2.47;;
19587;SDS011;9940;47.252;8.696;2023-03-31T09:43:28;5.43;;;2.28;;
19587;SDS011;9940;47.252;8.696;2023-03-31T09:46:01;5.75;;;2.42;;
19587;SDS011;9940;47.252;8.696;2023-03-31T09:48:32;3.63;;;2.45;;
19587;SDS011;9940;47.252;8.696;2023-03-31T09:51:13;4.35;;;2.20;;
19587;SDS011;9940;47.252;8.696;2023-03-31T09:53:46;5.13;;;2.28;;
19587;SDS011;9940;47.252;8.696;2023-03-31T09:56:30;5.10;;;3.00;;
19587;SDS011;9940;47.252;8.696;2023-03-31T09:59:15;6.50;;;2.63;;
19587;SDS011;9940;47.252;8.696;2023-03-31T10:01:55;4.40;;;2.55;;
19587;SDS011;9940;47.252;8.696;2023-03-31T10:04:25;6.93;;;2.78;;
19587;SDS011;9940;47.252;8.696;2023-03-31T10:06:56;3.90;;;2.60;;
19587;SDS011;9940;47.252;8.696;2023-03-31T10:09:25;6.47;;;2.70;;
19587;SDS011;9940;47.252;8.696;2023-03-31T10:11:55;5.45;;;2.53;;
19587;SDS011;9940;47.252;8.696;2023-03-31T10:14:31;7.70;;;2.97;;
19587;SDS011;9940;47.252;8.696;2023-03-31T10:17:23;5.53;;;2.80;;
19587;SDS011;9940;47.252;8.696;2023-03-31T10:19:53;5.00;;;2.60;;
19587;SDS011;9940;47.252;8.696;2023-03-31T10:22:44;5.00;;;2.65;;
19587;SDS011;9940;47.252;8.696;2023-03-31T10:25:16;6.53;;;3.08;;
19587;SDS011;9940;47.252;8.696;2023-03-31T10:27:50;8.38;;;2.97;;
19587;SDS011;9940;47.252;8.696;2023-03-31T10:30:22;5.03;;;2.60;;
19587;SDS011;9940;47.252;8.696;2023-03-31T10:32:51;6.32;;;3.10;;
19587;SDS011;9940;47.252;8.696;2023-03-31T10:35:24;7.25;;;3.33;;
19587;SDS011;9940;47.252;8.696;2023-03-31T10:37:57;5.35;;;3.15;;
19587;SDS011;9940;47.252;8.696;2023-03-31T10:40:27;7.30;;;3.25;;
19587;SDS011;9940;47.252;8.696;2023-03-31T10:42:58;7.28;;;3.53;;
19587;SDS011;9940;47.252;8.696;2023-03-31T10:50:51;5.60;;;3.95;;
19587;SDS011;9940;47.252;8.696;2023-03-31T10:53:17;6.90;;;4.00;;
19587;SDS011;9940;47.252;8.696;2023-03-31T11:01:28;6.43;;;4.10;;
19587;SDS011;9940;47.252;8.696;2023-03-31T11:23:00;10.65;;;7.70;;
19587;SDS011;9940;47.252;8.696;2023-03-31T11:30:53;9.43;;;8.63;;
19587;SDS011;9940;47.252;8.696;2023-03-31T11:41:53;9.03;;;6.37;;
19587;SDS011;9940;47.252;8.696;2023-03-31T11:44:26;6.00;;;5.38;;
19587;SDS011;9940;47.252;8.696;2023-03-31T11:47:05;5.30;;;4.80;;
19587;SDS011;9940;47.252;8.696;2023-03-31T11:49:47;4.30;;;3.83;;
19587;SDS011;9940;47.252;8.696;2023-03-31T11:52:36;4.10;;;3.80;;
19587;SDS011;9940;47.252;8.696;2023-03-31T11:55:05;4.35;;;3.05;;
19587;SDS011;9940;47.252;8.696;2023-03-31T11:57:35;3.60;;;3.30;;
19587;SDS011;9940;47.252;8.696;2023-03-31T12:00:15;5.13;;;3.13;;
19587;SDS011;9940;47.252;8.696;2023-03-31T12:02:53;5.00;;;2.70;;
19587;SDS011;9940;47.252;8.696;2023-03-31T12:05:21;2.88;;;2.22;;
19587;SDS011;9940;47.252;8.696;2023-03-31T12:12:54;2.47;;;2.28;;
19587;SDS011;9940;47.252;8.696;2023-03-31T12:17:53;2.80;;;2.10;;
19587;SDS011;9940;47.252;8.696;2023-03-31T12:20:33;2.83;;;2.10;;
19587;SDS011;9940;47.252;8.696;2023-03-31T12:23:02;2.20;;;2.00;;
19587;SDS011;9940;47.252;8.696;2023-03-31T12:25:34;3.35;;;2.50;;
19587;SDS011;9940;47.252;8.696;2023-03-31T12:28:07;3.47;;;2.72;;
19587;SDS011;9940;47.252;8.696;2023-03-31T12:30:35;7.38;;;2.70;;
19587;SDS011;9940;47.252;8.696;2023-03-31T12:38:16;5.63;;;2.17;;
19587;SDS011;9940;47.252;8.696;2023-03-31T12:43:27;7.75;;;1.90;;
19587;SDS011;9940;47.252;8.696;2023-03-31T12:56:09;1.63;;;0.90;;
19587;SDS011;9940;47.252;8.696;2023-03-31T12:58:38;3.85;;;1.65;;
19587;SDS011;9940;47.252;8.696;2023-03-31T13:01:23;4.78;;;1.50;;
19587;SDS011;9940;47.252;8.696;2023-03-31T13:19:44;2.30;;;1.30;;
19587;SDS011;9940;47.252;8.696;2023-03-31T13:22:28;2.80;;;1.65;;
19587;SDS011;9940;47.252;8.696;2023-03-31T13:25:24;2.67;;;1.70;;
19587;SDS011;9940;47.252;8.696;2023-03-31T13:27:47;2.65;;;1.65;;
19587;SDS011;9940;47.252;8.696;2023-03-31T13:33:12;1.58;;;1.00;;
19587;SDS011;9940;47.252;8.696;2023-03-31T13:35:39;2.58;;;0.77;;
19587;SDS011;9940;47.252;8.696;2023-03-31T13:43:03;1.60;;;0.50;;
19587;SDS011;9940;47.252;8.696;2023-03-31T13:45:54;1.20;;;0.70;;
19587;SDS011;9940;47.252;8.696;2023-03-31T13:48:23;0.60;;;0.40;;
19587;SDS011;9940;47.252;8.696;2023-03-31T14:01:15;3.38;;;0.30;;
19587;SDS011;9940;47.252;8.696;2023-03-31T14:03:49;3.28;;;0.50;;
19587;SDS011;9940;47.252;8.696;2023-03-31T14:13:57;2.60;;;0.10;;
19587;SDS011;9940;47.252;8.696;2023-03-31T14:16:23;0.13;;;0.13;;
19587;SDS011;9940;47.252;8.696;2023-03-31T14:18:53;0.20;;;0.10;;
19587;SDS011;9940;47.252;8.696;2023-03-31T14:21:33;0.75;;;0.20;;
19587;SDS011;9940;47.252;8.696;2023-03-31T14:24:25;0.70;;;0.10;;
19587;SDS011;9940;47.252;8.696;2023-03-31T14:34:48;0.60;;;0.30;;
19587;SDS011;9940;47.252;8.696;2023-03-31T14:37:17;2.25;;;0.32;;
19587;SDS011;9940;47.252;8.696;2023-03-31T14:39:49;0.43;;;0.30;;
19587;SDS011;9940;47.252;8.696;2023-03-31T14:42:17;2.13;;;0.40;;
19587;SDS011;9940;47.252;8.696;2023-03-31T14:44:44;0.20;;;0.20;;
19587;SDS011;9940;47.252;8.696;2023-03-31T14:47:25;1.05;;;0.40;;
19587;SDS011;9940;47.252;8.696;2023-03-31T14:49:59;0.30;;;0.20;;
19587;SDS011;9940;47.252;8.696;2023-03-31T14:52:27;1.25;;;0.35;;
19587;SDS011;9940;47.252;8.696;2023-03-31T14:54:57;0.30;;;0.30;;
19587;SDS011;9940;47.252;8.696;2023-03-31T14:57:35;1.75;;;0.63;;
19587;SDS011;9940;47.252;8.696;2023-03-31T15:00:05;1.02;;;0.40;;
19587;SDS011;9940;47.252;8.696;2023-03-31T15:02:33;2.05;;;0.30;;
19587;SDS011;9940;47.252;8.696;2023-03-31T15:05:03;3.17;;;0.47;;
19587;SDS011;9940;47.252;8.696;2023-03-31T15:07:31;0.75;;;0.40;;
19587;SDS011;9940;47.252;8.696;2023-03-31T15:09:57;1.92;;;0.43;;
19587;SDS011;9940;47.252;8.696;2023-03-31T15:12:26;2.25;;;0.30;;
19587;SDS011;9940;47.252;8.696;2023-03-31T15:15:05;1.58;;;0.45;;
19587;SDS011;9940;47.252;8.696;2023-03-31T15:17:35;2.05;;;0.40;;
19587;SDS011;9940;47.252;8.696;2023-03-31T15:20:19;1.02;;;0.20;;
19587;SDS011;9940;47.252;8.696;2023-03-31T15:22:46;2.05;;;0.52;;
19587;SDS011;9940;47.252;8.696;2023-03-31T15:25:12;2.15;;;0.60;;
19587;SDS011;9940;47.252;8.696;2023-03-31T15:27:44;3.05;;;0.50;;
19587;SDS011;9940;47.252;8.696;2023-03-31T15:30:13;0.70;;;0.50;;
19587;SDS011;9940;47.252;8.696;2023-03-31T15:32:41;2.00;;;0.60;;
19587;SDS011;9940;47.252;8.696;2023-03-31T15:35:15;2.00;;;0.20;;
19587;SDS011;9940;47.252;8.696;2023-03-31T15:37:44;1.25;;;0.40;;
19587;SDS011;9940;47.252;8.696;2023-03-31T15:40:16;5.53;;;1.08;;
19587;SDS011;9940;47.252;8.696;2023-03-31T15:42:46;2.08;;;0.50;;
19587;SDS011;9940;47.252;8.696;2023-03-31T15:47:48;9.80;;;0.67;;
19587;SDS011;9940;47.252;8.696;2023-03-31T15:50:15;1.00;;;0.40;;
19587;SDS011;9940;47.252;8.696;2023-03-31T15:52:47;0.80;;;0.30;;
19587;SDS011;9940;47.252;8.696;2023-03-31T15:57:54;0.75;;;0.25;;
19587;SDS011;9940;47.252;8.696;2023-03-31T16:06:45;1.63;;;0.30;;
19587;SDS011;9940;47.252;8.696;2023-03-31T16:09:07;2.53;;;0.30;;
19587;SDS011;9940;47.252;8.696;2023-03-31T16:14:19;0.55;;;0.30;;
19587;SDS011;9940;47.252;8.696;2023-03-31T16:17:05;1.50;;;0.57;;
19587;SDS011;9940;47.252;8.696;2023-03-31T16:19:54;1.70;;;0.20;;
19587;SDS011;9940;47.252;8.696;2023-03-31T16:22:38;0.65;;;0.35;;
19587;SDS011;9940;47.252;8.696;2023-03-31T16:25:10;1.27;;;0.63;;
19587;SDS011;9940;47.252;8.696;2023-03-31T16:27:44;0.68;;;0.30;;
19587;SDS011;9940;47.252;8.696;2023-03-31T16:30:13;1.38;;;0.63;;
19587;SDS011;9940;47.252;8.696;2023-03-31T16:33:26;0.75;;;0.30;;
19587;SDS011;9940;47.252;8.696;2023-03-31T16:35:32;1.27;;;0.30;;
19587;SDS011;9940;47.252;8.696;2023-03-31T16:40:29;0.30;;;0.20;;
19587;SDS011;9940;47.252;8.696;2023-03-31T16:45:32;1.83;;;0.25;;
19587;SDS011;9940;47.252;8.696;2023-03-31T16:48:01;1.17;;;0.22;;
19587;SDS011;9940;47.252;8.696;2023-03-31T16:50:29;4.22;;;0.40;;
19587;SDS011;9940;47.252;8.696;2023-03-31T16:52:55;0.70;;;0.25;;
19587;SDS011;9940;47.252;8.696;2023-03-31T16:55:22;0.30;;;0.20;;
19587;SDS011;9940;47.252;8.696;2023-03-31T16:57:48;4.03;;;0.38;;
19587;SDS011;9940;47.252;8.696;2023-03-31T17:00:17;4.35;;;0.60;;
19587;SDS011;9940;47.252;8.696;2023-03-31T17:02:45;0.82;;;0.20;;
19587;SDS011;9940;47.252;8.696;2023-03-31T17:05:11;0.55;;;0.30;;
19587;SDS011;9940;47.252;8.696;2023-03-31T17:07:42;1.27;;;0.28;;
19587;SDS011;9940;47.252;8.696;2023-03-31T17:10:10;0.75;;;0.30;;
19587;SDS011;9940;47.252;8.696;2023-03-31T17:12:36;1.58;;;0.60;;
19587;SDS011;9940;47.252;8.696;2023-03-31T17:15:02;2.25;;;0.57;;
19587;SDS011;9940;47.252;8.696;2023-03-31T17:17:28;1.70;;;0.80;;
19587;SDS011;9940;47.252;8.696;2023-03-31T17:19:54;1.20;;;0.57;;
19587;SDS011;9940;47.252;8.696;2023-03-31T17:22:21;4.25;;;2.17;;
19587;SDS011;9940;47.252;8.696;2023-03-31T17:24:47;4.72;;;1.48;;
19587;SDS011;9940;47.252;8.696;2023-03-31T17:27:13;4.53;;;1.60;;
19587;SDS011;9940;47.252;8.696;2023-03-31T17:29:39;2.70;;;0.82;;
19587;SDS011;9940;47.252;8.696;2023-03-31T17:32:07;1.80;;;0.40;;
19587;SDS011;9940;47.252;8.696;2023-03-31T17:34:37;3.15;;;0.50;;
19587;SDS011;9940;47.252;8.696;2023-03-31T17:37:03;0.88;;;0.68;;
19587;SDS011;9940;47.252;8.696;2023-03-31T17:39:29;2.28;;;1.00;;
19587;SDS011;9940;47.252;8.696;2023-03-31T17:41:57;3.35;;;0.90;;
19587;SDS011;9940;47.252;8.696;2023-03-31T17:44:23;5.25;;;1.15;;
19587;SDS011;9940;47.252;8.696;2023-03-31T17:46:49;3.88;;;0.68;;
19587;SDS011;9940;47.252;8.696;2023-03-31T17:49:14;3.13;;;0.77;;
19587;SDS011;9940;47.252;8.696;2023-03-31T17:51:43;3.65;;;0.63;;
19587;SDS011;9940;47.252;8.696;2023-03-31T17:54:09;3.60;;;0.85;;
19587;SDS011;9940;47.252;8.696;2023-03-31T17:56:38;2.03;;;0.70;;
19587;SDS011;9940;47.252;8.696;2023-03-31T17:59:03;3.30;;;0.93;;
19587;SDS011;9940;47.252;8.696;2023-03-31T18:01:29;4.15;;;0.90;;
19587;SDS011;9940;47.252;8.696;2023-03-31T18:03:57;3.08;;;0.57;;
19587;SDS011;9940;47.252;8.696;2023-03-31T18:06:23;2.42;;;0.88;;
19587;SDS011;9940;47.252;8.696;2023-03-31T18:08:49;1.77;;;0.45;;
19587;SDS011;9940;47.252;8.696;2023-03-31T18:11:15;2.20;;;0.40;;
19587;SDS011;9940;47.252;8.696;2023-03-31T18:13:41;0.55;;;0.40;;
19587;SDS011;9940;47.252;8.696;2023-03-31T18:16:09;3.05;;;0.68;;
19587;SDS011;9940;47.252;8.696;2023-03-31T18:18:36;5.35;;;0.75;;
19587;SDS011;9940;47.252;8.696;2023-03-31T18:21:07;2.90;;;0.40;;
19587;SDS011;9940;47.252;8.696;2023-03-31T18:23:39;3.17;;;0.45;;
19587;SDS011;9940;47.252;8.696;2023-03-31T18:26:08;2.00;;;0.43;;
19587;SDS011;9940;47.252;8.696;2023-03-31T18:28:35;0.55;;;0.32;;
19587;SDS011;9940;47.252;8.696;2023-03-31T18:31:05;1.30;;;0.60;;
19587;SDS011;9940;47.252;8.696;2023-03-31T18:33:32;4.68;;;1.60;;
19587;SDS011;9940;47.252;8.696;2023-03-31T18:35:59;1.92;;;0.40;;